Palma Sola, Florida
Current Conditions -  °F | °C
As of 3:53 PM on Thursday 20 Nov 2014 (Local Time) from KSRQ Reporting Station
Clear Clear  
Wind Chill: 65°   Ceiling: Unl
Heat Index: 65°   Visibility: 10mi
Dew Point: 43°   Wind: 6mph
Humidity: 45%   Direction: 20°NNE
Pressure: 30.15"   Gusts: NA
Location:  27.4993°N, 82.6363°W
Report Text: KSRQ 202053Z 02005KT 10SM CLR 18/06 A3015 RMK AO2 SLP207 T01830061 56015
Loading
Personal Weather Stations






























Interactive Weather Map New forecast layout! Learn more

10-Day Weather Forecast

Advertisements
Track Severe Weather on mobile